createdAt,value
2022-11-09T07:37:41.162Z,2.50
2022-11-09T08:13:50.872Z,3.60
2022-11-09T08:18:44.392Z,3.80
2022-11-09T08:42:06.637Z,4.90
2022-11-09T08:47:00.097Z,5.20
2022-11-09T08:51:54.808Z,5.40
2022-11-09T08:56:48.367Z,5.70
2022-11-09T09:01:43.431Z,6.10
2022-11-09T09:06:37.834Z,6.40
2022-11-09T09:11:31.363Z,6.70
2022-11-09T09:16:24.862Z,7.00
2022-11-09T09:21:19.848Z,7.20
2022-11-09T09:26:13.544Z,7.40
2022-11-09T09:31:07.224Z,7.60
2022-11-09T09:36:01.336Z,7.90
2022-11-09T09:41:00.302Z,8.20
2022-11-09T09:45:55.144Z,8.60
2022-11-09T09:50:52.105Z,8.90
2022-11-09T09:55:51.890Z,9.20
2022-11-09T10:00:47.099Z,9.50
2022-11-09T10:05:49.413Z,9.90
2022-11-09T10:10:48.402Z,10.30
2022-11-09T10:15:50.882Z,10.80
2022-11-09T10:20:58.616Z,11.20
2022-11-09T10:26:04.890Z,11.50
2022-11-09T10:31:03.133Z,11.90
2022-11-09T10:36:07.832Z,12.30
2022-11-09T10:41:06.535Z,12.80
2022-11-09T10:46:21.575Z,13.30
2022-11-09T10:51:39.815Z,13.50
2022-11-09T10:57:10.030Z,13.80
2022-11-09T11:02:44.220Z,14.20
2022-11-09T11:07:56.496Z,14.60
2022-11-09T11:13:29.363Z,15.10
2022-11-09T11:18:47.082Z,15.40
2022-11-09T11:24:14.909Z,15.90
2022-11-09T11:29:48.463Z,16.20
2022-11-09T11:35:02.751Z,16.90
2022-11-09T11:40:21.647Z,17.20
2022-11-09T11:45:42.472Z,17.50
2022-11-09T11:51:02.818Z,17.60
2022-11-09T11:56:23.735Z,17.50
2022-11-09T12:01:52.821Z,17.60
2022-11-09T12:07:15.844Z,18.30
2022-11-09T12:12:37.278Z,18.70
2022-11-09T12:17:59.252Z,19.00
2022-11-09T12:23:26.091Z,19.20
2022-11-09T12:28:55.920Z,19.10
2022-11-09T12:34:16.383Z,19.10
2022-11-09T12:39:37.136Z,19.20
2022-11-09T12:45:04.744Z,19.10
2022-11-09T12:50:20.344Z,19.20
2022-11-09T12:55:42.477Z,19.30
2022-11-09T13:00:57.306Z,19.50
2022-11-09T13:06:19.200Z,19.90
2022-11-09T13:11:39.565Z,20.40
2022-11-09T13:16:52.438Z,20.70
2022-11-09T13:22:25.319Z,21.10
2022-11-09T13:27:51.903Z,20.10
2022-11-09T13:33:25.470Z,19.90
2022-11-09T13:38:38.491Z,19.40
2022-11-09T13:44:09.781Z,19.60
2022-11-09T13:49:46.084Z,20.70
2022-11-09T13:54:58.568Z,20.90
2022-11-09T14:00:19.920Z,20.30
2022-11-09T14:05:36.328Z,20.70
2022-11-09T14:11:11.594Z,19.70
2022-11-09T14:16:31.369Z,17.90
2022-11-09T14:21:48.021Z,16.50
2022-11-09T14:27:01.877Z,15.70
2022-11-09T14:32:30.330Z,15.20
2022-11-09T14:37:46.530Z,14.90
2022-11-09T14:43:02.455Z,14.60
2022-11-09T14:48:20.795Z,14.20
2022-11-09T14:53:37.903Z,13.90
2022-11-09T14:58:50.896Z,13.60
2022-11-09T15:04:11.845Z,13.30
2022-11-09T15:09:29.810Z,13.20
2022-11-09T15:14:42.784Z,12.80
2022-11-09T15:19:58.648Z,12.40
2022-11-09T15:25:31.353Z,12.30
2022-11-09T15:30:46.267Z,12.00
2022-11-09T15:36:04.573Z,11.70
2022-11-09T15:41:19.841Z,11.40
2022-11-09T15:46:37.891Z,11.10
2022-11-09T15:51:52.110Z,10.80
2022-11-09T15:57:05.366Z,10.70
2022-11-09T16:02:19.146Z,10.50
2022-11-09T16:07:33.029Z,10.40
2022-11-09T16:12:46.508Z,10.10
2022-11-09T16:17:59.079Z,10.00
2022-11-09T16:23:13.355Z,9.80
2022-11-09T16:28:26.126Z,9.70
2022-11-09T16:33:40.241Z,9.50
2022-11-09T16:38:57.311Z,9.30
2022-11-09T16:44:09.745Z,9.10
2022-11-09T16:49:22.113Z,9.00
